Aérodrome :
LOGIN :

S'inscrire | Disclaimer

   EN    FR    IT 

 










Légende :    VFR   VFR Marginal   IFR   IFR Intensif   IFR Très Intensif
Visi : 
Plafond : 
>= 8 km
>= 3000ft
5 à 8 km
1000 à 3000 ft
1500m à 5 km
500 à 1000 ft
800 à 1500m
200 à 500 ft
< 800m
< 200 ft
Symboles :   Orages  Brouillard  Fortes neiges  Fortes précipitations  Vent > 20 kt
SIGMETs :   Divers  Orages  Givrage  Turbulence  Onde Orograph.  Cendres Volcan.






- Altitude de l'aérodrome : 622 ft
- Code IATA : BRS


EGGD - Bristol Int.

DERNIER METAR :
  • 190050Z AUTO 24004KT 9999 //////TCU 14/13 Q1013

METARs EXPIRÉS :
  • 190020Z AUTO 25005KT 230V290 9999 SCT006 SCT019 14/14 Q1013
  • 182350Z AUTO 25009KT 9999 BKN003 OVC020 14/14 Q1013
  • 182320Z AUTO 25008KT 9999 BKN003 OVC010 15/14 Q1013
  • 182250Z AUTO 26010KT 9999 SCT002 SCT006 OVC010 15/14 Q1013
  • 182220Z AUTO 23005KT 9999 BKN004 BKN011 16/15 Q1013

TAF AMD TAF EGGD
Valide du 19 à 00h jusqu'au 20 à 00h UTC


190023Z 1900/1924 26008KT 9999 SCT006 BKN018
TEMPO 1900/1903 3000 RA BKN006
PROB30
TEMPO 1900/1903 BKN003
PROB30
TEMPO 1908/1914 6000 SHRA BKN008
ATIS : +44 1275 473 666



MET'MAP, la Météo Aéronautique d'un coup d'oeil ! - Copyright ORBIFLY Décembre 2007 - Disclaimer

ORBIFLY MET'MAP TEAM :

Programmation & Développement : Alexandra Zaïnal
Sur une idée originale de : Baudouin d'Aumeries
Assistance à la programmation : Marc-Olivier Méhu
Soutien technique & logistique : Manuel Goepfert

Contact : metmap@orbifly.com




SOURCES & CREDITS :

   NOAA